LYTV/TIV METAR and TAF weather

Enter ICAO airport designator
Station Type Date Time Source
LYTV METAR 2022/06/29 00:00 UTC NOAA

LYTV 290000Z AUTO 10003KT 060V160 CAVOK 21/19 Q1012


Station Type Date Time Source
LYTV Decoded METAR 2022/06/29 00:00 UTC NOAA

Tivat, Serbia and Montenegro (LYTV) 42-24N 018-44E 5M
Jun 28, 2022 - 08:00 PM EDT / 2022.06.29 0000 UTC
Wind: from the E (100 degrees) at 3 MPH (3 KT) (direction variable):0
Visibility: greater than 7 mile(s):0
Temperature: 69 F (21 C)
Dew Point: 66 F (19 C)
Relative Humidity: 88%
Pressure (altimeter): 29.88 in. Hg (1012 hPa)
ob: LYTV 290000Z AUTO 10003KT 060V160 CAVOK 21/19 Q1012
cycle: 0

Station Type Date Time Source
LYTV TAF 2022/06/28 18:27 UTC NOAA

TAF LYTV 281700Z 2818/2918 VRB02KT CAVOK TX34/2914Z TN20/2903Z PROB30
TEMPO 2818/2820 VRB15G25KT 5000 TSRA FEW030CB SCT040

Example: see airport list